Time;durP1;ratioP1;P1;durP2;ratioP2;P2;SDS_P1;SDS_P2;PMS_P1;PMS_P2;Temp;Humidity;BMP_temperature;BMP_pressure;BME280_temperature;BME280_humidity;BME280_pressure;Samples;Min_cycle;Max_cycle;Signal;HPM_P1;HPM_P2
2023/07/29 00:00:01;;;;;;;4.55;2.40;;;;;;;23.87;60.06;99476.00;4484213;31;33647;-76
2023/07/29 00:02:38;;;;;;;5.07;2.53;;;;;;;23.74;60.36;99474.44;4482120;31;32957;-76
2023/07/29 00:05:06;;;;;;;5.60;2.33;;;;;;;24.06;59.12;99473.09;4485030;31;33774;-76
2023/07/29 00:07:34;;;;;;;4.72;2.45;;;;;;;23.82;59.98;99464.66;4484937;31;33267;-77
2023/07/29 00:10:02;;;;;;;4.62;2.28;;;;;;;23.79;59.88;99471.75;4492754;31;33539;-77
2023/07/29 00:12:30;;;;;;;5.45;2.42;;;;;;;23.61;60.47;99471.06;4491985;31;34352;-76
2023/07/29 00:14:58;;;;;;;4.00;2.10;;;;;;;23.66;60.32;99465.72;4487565;31;33964;-75
2023/07/29 00:17:29;;;;;;;4.87;2.28;;;;;;;23.43;60.96;99474.84;4490985;31;33441;-76
2023/07/29 00:19:56;;;;;;;4.43;2.20;;;;;;;23.48;60.94;99473.00;4480894;31;33147;-77
2023/07/29 00:22:24;;;;;;;3.97;2.22;;;;;;;23.50;60.65;99465.06;4490603;31;33765;-77
2023/07/29 00:24:57;;;;;;;4.22;2.28;;;;;;;23.61;59.98;99457.84;4483431;31;33988;-77
2023/07/29 00:27:25;;;;;;;5.13;2.27;;;;;;;23.84;58.98;99459.34;4474693;31;32789;-76
2023/07/29 00:29:55;;;;;;;6.07;2.47;;;;;;;23.78;58.87;99464.66;4487615;31;33343;-77
2023/07/29 00:32:22;;;;;;;4.68;2.20;;;;;;;23.79;58.70;99461.16;4485911;31;33876;-75
2023/07/29 00:34:50;;;;;;;4.70;2.40;;;;;;;23.55;59.32;99455.31;4476195;31;33199;-76
2023/07/29 00:37:17;;;;;;;5.18;2.25;;;;;;;23.84;58.27;99459.34;4494486;31;33104;-76
2023/07/29 00:39:45;;;;;;;3.78;2.03;;;;;;;23.70;58.53;99462.13;4488518;31;34464;-76
2023/07/29 00:42:13;;;;;;;4.90;2.27;;;;;;;23.52;58.91;99455.34;4495419;31;34516;-76
2023/07/29 00:44:41;;;;;;;4.07;2.33;;;;;;;23.51;58.94;99472.09;4499429;31;33207;-76
2023/07/29 00:47:09;;;;;;;6.18;2.55;;;;;;;23.32;59.33;99472.31;4498044;31;33207;-77
2023/07/29 00:49:37;;;;;;;4.30;2.40;;;;;;;23.06;60.42;99469.13;4483397;31;32837;-76
2023/07/29 00:52:04;;;;;;;4.15;2.37;;;;;;;22.72;61.45;99464.19;4489497;31;33232;-76
2023/07/29 00:54:32;;;;;;;4.50;2.30;;;;;;;22.87;61.22;99464.03;4492939;31;35029;-76
2023/07/29 00:57:00;;;;;;;5.18;2.40;;;;;;;23.08;60.21;99462.03;4486760;31;33312;-76
2023/07/29 00:59:30;;;;;;;4.72;2.45;;;;;;;23.24;59.48;99455.69;4460340;31;32621;-76
2023/07/29 01:01:58;;;;;;;4.82;2.40;;;;;;;22.82;61.11;99449.97;4487530;31;34247;-77
2023/07/29 01:04:26;;;;;;;4.00;2.08;;;;;;;23.16;59.70;99449.66;4492111;31;34131;-76
2023/07/29 01:06:58;;;;;;;4.53;2.10;;;;;;;23.34;58.91;99457.31;4487469;31;34238;-75
2023/07/29 01:09:29;;;;;;;4.93;2.58;;;;;;;23.59;58.23;99448.22;4476002;31;33084;-76
2023/07/29 01:12:09;;;;;;;5.25;2.47;;;;;;;23.18;59.68;99445.22;4490731;31;34304;-75
2023/07/29 01:14:40;;;;;;;4.75;2.50;;;;;;;23.26;59.43;99447.75;4478272;31;33779;-75
2023/07/29 01:17:10;;;;;;;4.55;2.30;;;;;;;22.71;61.35;99442.16;4484057;31;32306;-76
2023/07/29 01:20:03;;;;;;;4.53;2.42;;;;;;;22.67;61.56;99450.13;4481777;31;32613;-76
2023/07/29 01:22:32;;;;;;;4.43;2.40;;;;;;;22.49;62.09;99452.06;4488337;31;33914;-77
2023/07/29 01:25:00;;;;;;;4.30;2.40;;;;;;;22.42;62.39;99445.09;4494524;31;33622;-76
2023/07/29 01:27:28;;;;;;;5.93;2.50;;;;;;;22.45;62.49;99452.13;4495789;31;32817;-76
2023/07/29 01:29:56;;;;;;;4.85;2.53;;;;;;;22.44;62.71;99450.34;4488200;31;35927;-76
2023/07/29 01:32:45;;;;;;;5.37;2.50;;;;;;;22.55;62.25;99449.34;4474115;31;34439;-76
2023/07/29 01:35:29;;;;;;;5.05;2.45;;;;;;;22.44;62.68;99456.50;4495240;31;33128;-76
2023/07/29 01:38:03;;;;;;;4.35;2.35;;;;;;;22.42;62.65;99454.78;4478726;31;33746;-77
2023/07/29 01:40:31;;;;;;;4.35;2.10;;;;;;;22.46;62.17;99457.34;4460557;31;33289;-75
2023/07/29 01:42:59;;;;;;;4.37;2.25;;;;;;;22.67;61.51;99458.06;4468723;32;34482;-76
2023/07/29 01:45:26;;;;;;;4.30;2.05;;;;;;;22.64;61.28;99455.44;4488327;31;33741;-76
2023/07/29 01:47:54;;;;;;;4.22;2.33;;;;;;;22.92;60.05;99462.19;4491886;31;33975;-77
2023/07/29 01:50:22;;;;;;;4.60;2.20;;;;;;;22.66;60.99;99466.87;4486196;31;33669;-77
2023/07/29 01:52:49;;;;;;;4.85;2.37;;;;;;;22.38;61.84;99461.84;4486471;31;33269;-77
2023/07/29 01:55:17;;;;;;;4.22;2.00;;;;;;;22.86;60.37;99462.25;4492710;31;34049;-76
2023/07/29 01:57:46;;;;;;;4.78;2.28;;;;;;;22.72;60.42;99454.47;4489068;31;33206;-76
2023/07/29 02:00:15;;;;;;;4.07;2.12;;;;;;;22.46;61.30;99454.72;4488953;31;33748;-76
2023/07/29 02:02:42;;;;;;;5.40;2.37;;;;;;;22.61;59.94;99451.06;4489703;31;34550;-76
2023/07/29 02:05:10;;;;;;;4.37;2.10;;;;;;;22.85;59.10;99451.69;4475903;31;33095;-75
2023/07/29 02:07:37;;;;;;;4.32;2.15;;;;;;;22.84;59.15;99458.75;4484925;31;33117;-77
2023/07/29 02:10:05;;;;;;;4.37;2.20;;;;;;;22.77;59.56;99459.69;4482991;31;34485;-76
2023/07/29 02:12:33;;;;;;;6.32;2.60;;;;;;;22.95;59.12;99450.72;4486477;31;33527;-77
2023/07/29 02:15:01;;;;;;;4.35;2.15;;;;;;;22.74;59.98;99449.19;4495332;31;33999;-76
2023/07/29 02:17:28;;;;;;;5.00;2.60;;;;;;;22.47;61.05;99448.56;4493959;31;32822;-77
2023/07/29 02:19:56;;;;;;;5.07;2.40;;;;;;;22.06;62.72;99451.50;4491437;31;33626;-76
2023/07/29 02:22:24;;;;;;;4.85;2.60;;;;;;;22.03;62.93;99452.41;4488737;31;33588;-76
2023/07/29 02:24:51;;;;;;;5.00;2.50;;;;;;;22.53;60.97;99456.44;4485457;31;33835;-76
2023/07/29 02:27:19;;;;;;;5.80;2.70;;;;;;;22.48;60.83;99460.84;4484769;31;33472;-75
2023/07/29 02:29:46;;;;;;;5.53;2.45;;;;;;;22.35;61.49;99465.38;4493122;31;33760;-76
2023/07/29 02:32:15;;;;;;;5.65;2.47;;;;;;;22.12;62.14;99462.91;4478023;31;33827;-76
2023/07/29 02:34:43;;;;;;;6.10;2.60;;;;;;;22.09;62.38;99460.28;4487033;31;33465;-76
2023/07/29 02:37:10;;;;;;;5.40;2.65;;;;;;;22.15;62.01;99457.59;4484119;31;33270;-77
2023/07/29 02:39:38;;;;;;;4.53;2.10;;;;;;;22.23;61.69;99454.88;4493942;31;33560;-76
2023/07/29 02:42:06;;;;;;;4.68;2.50;;;;;;;22.58;60.48;99454.63;4488559;31;34690;-75
2023/07/29 02:44:34;;;;;;;5.03;2.53;;;;;;;22.61;60.38;99452.84;4488766;31;33936;-77
2023/07/29 02:47:01;;;;;;;4.85;2.40;;;;;;;22.18;61.71;99457.56;4473659;32;33928;-76
2023/07/29 02:49:29;;;;;;;5.30;2.40;;;;;;;22.05;62.31;99474.38;4491377;31;33153;-76
2023/07/29 02:51:57;;;;;;;4.63;2.30;;;;;;;21.86;62.94;99464.84;4490294;31;33747;-75
2023/07/29 02:54:24;;;;;;;3.90;2.30;;;;;;;21.94;62.76;99463.91;4488440;31;33315;-77
2023/07/29 02:56:52;;;;;;;4.45;2.67;;;;;;;22.01;62.66;99472.66;4486816;31;34013;-77
2023/07/29 02:59:20;;;;;;;4.78;2.28;;;;;;;22.13;62.07;99462.00;4488959;31;33619;-75
2023/07/29 03:01:48;;;;;;;4.80;2.30;;;;;;;21.90;62.73;99471.84;4488343;31;34414;-75
2023/07/29 03:04:15;;;;;;;4.35;2.28;;;;;;;21.82;62.95;99468.37;4494801;31;33764;-76
2023/07/29 03:06:43;;;;;;;4.43;2.60;;;;;;;22.15;61.88;99473.41;4488014;31;33973;-76
2023/07/29 03:09:10;;;;;;;5.50;2.50;;;;;;;22.02;62.14;99471.78;4483792;31;33608;-76
2023/07/29 03:11:38;;;;;;;6.22;2.40;;;;;;;21.83;62.81;99470.13;4491058;31;33948;-77
2023/07/29 03:14:05;;;;;;;5.65;2.45;;;;;;;21.67;63.36;99479.88;4484526;31;33144;-76
2023/07/29 03:16:33;;;;;;;5.50;2.50;;;;;;;21.82;62.79;99479.81;4481662;31;33272;-76
2023/07/29 03:19:02;;;;;;;5.03;2.37;;;;;;;21.68;63.02;99471.97;4481729;31;31935;-77
2023/07/29 03:21:29;;;;;;;4.97;2.62;;;;;;;21.46;63.95;99481.78;4494999;31;33667;-76
2023/07/29 03:23:57;;;;;;;5.78;2.75;;;;;;;21.25;64.59;99477.44;4478654;31;33828;-77
2023/07/29 03:26:25;;;;;;;5.47;2.60;;;;;;;21.30;64.71;99480.03;4495068;31;33367;-77
2023/07/29 03:28:52;;;;;;;4.47;2.50;;;;;;;21.64;63.20;99480.78;4495407;31;34119;-76
2023/07/29 03:31:20;;;;;;;6.00;2.80;;;;;;;21.57;63.63;99479.06;4487805;31;34698;-77
2023/07/29 03:33:48;;;;;;;5.62;2.53;;;;;;;21.32;64.47;99479.12;4492634;31;33766;-76
2023/07/29 03:36:15;;;;;;;6.20;2.70;;;;;;;21.28;64.99;99476.53;4482411;31;33289;-77
2023/07/29 03:38:45;;;;;;;4.83;2.83;;;;;;;21.14;65.88;99476.59;4482439;31;33664;-75
2023/07/29 03:41:12;;;;;;;5.05;2.53;;;;;;;21.21;65.63;99466.03;4472070;32;34200;-76
2023/07/29 03:43:40;;;;;;;5.50;2.65;;;;;;;21.31;65.44;99473.91;4484562;31;33734;-76
2023/07/29 03:46:08;;;;;;;5.78;2.58;;;;;;;21.12;66.42;99475.72;4483507;31;33335;-76
2023/07/29 03:48:39;;;;;;;5.07;2.50;;;;;;;21.12;66.42;99480.97;4482443;31;34041;-77
2023/07/29 03:51:06;;;;;;;6.32;2.80;;;;;;;21.65;64.58;99482.53;4484596;31;34448;-76
2023/07/29 03:53:34;;;;;;;5.10;2.67;;;;;;;21.62;64.80;99490.47;4482585;31;33627;-76
2023/07/29 03:56:02;;;;;;;5.68;2.90;;;;;;;21.74;64.57;99485.13;4486435;31;33355;-77
2023/07/29 03:58:29;;;;;;;5.97;2.60;;;;;;;21.98;63.62;99485.84;4487667;31;33710;-76
2023/07/29 04:00:57;;;;;;;5.50;2.90;;;;;;;21.53;65.17;99487.88;4482811;31;33676;-75
2023/07/29 04:03:25;;;;;;;4.65;2.45;;;;;;;21.93;63.65;99479.75;4490925;31;34017;-77
2023/07/29 04:05:52;;;;;;;5.47;2.70;;;;;;;21.81;63.62;99475.44;4482191;31;32899;-75
2023/07/29 04:08:20;;;;;;;5.05;2.80;;;;;;;21.73;64.27;99483.37;4482793;31;34638;-76
2023/07/29 04:10:48;;;;;;;4.95;2.30;;;;;;;21.72;64.46;99484.25;4476130;32;33437;-76
2023/07/29 04:13:15;;;;;;;4.90;2.92;;;;;;;21.82;63.85;99482.44;4485279;31;33486;-76
2023/07/29 04:15:43;;;;;;;6.22;2.70;;;;;;;21.73;64.01;99479.84;4493984;31;33562;-76
2023/07/29 04:18:11;;;;;;;5.28;2.78;;;;;;;21.91;63.64;99490.28;4484423;32;33303;-77
2023/07/29 04:20:38;;;;;;;5.82;2.50;;;;;;;21.80;64.03;99486.84;4484100;31;33850;-76
2023/07/29 04:23:06;;;;;;;5.28;2.78;;;;;;;22.05;63.30;99497.25;4493266;31;33903;-76
2023/07/29 04:25:34;;;;;;;5.47;2.58;;;;;;;21.82;64.17;99484.22;4494822;31;33378;-77
2023/07/29 04:28:03;;;;;;;4.75;2.62;;;;;;;21.90;63.66;99492.94;4486164;31;34127;-76
2023/07/29 04:30:30;;;;;;;4.80;2.53;;;;;;;22.24;62.39;99482.16;4488967;31;33724;-77
2023/07/29 04:32:58;;;;;;;6.63;2.47;;;;;;;22.31;62.21;99483.88;4487879;31;33533;-77
2023/07/29 04:35:26;;;;;;;4.50;2.50;;;;;;;22.15;62.96;99480.47;4492789;31;34016;-76
2023/07/29 04:37:53;;;;;;;5.53;2.60;;;;;;;22.13;63.00;99480.47;4484398;31;33698;-76
2023/07/29 04:40:22;;;;;;;5.60;2.80;;;;;;;21.97;63.47;99478.84;4492342;31;33641;-77
2023/07/29 04:42:51;;;;;;;6.30;3.00;;;;;;;21.94;63.75;99479.75;4488370;31;33774;-76
2023/07/29 04:45:18;;;;;;;5.50;2.60;;;;;;;21.86;64.26;99475.37;4496814;31;33022;-75
2023/07/29 04:47:46;;;;;;;4.83;2.70;;;;;;;22.01;63.86;99483.19;4488660;31;33605;-77
2023/07/29 04:50:14;;;;;;;5.15;2.60;;;;;;;22.43;62.30;99478.53;4492345;31;33474;-76
2023/07/29 04:52:41;;;;;;;5.75;2.70;;;;;;;22.34;62.67;99474.19;4494300;31;34547;-76
2023/07/29 04:55:09;;;;;;;4.75;2.70;;;;;;;22.41;62.69;99475.03;4485194;31;33016;-77
2023/07/29 04:57:36;;;;;;;5.03;2.70;;;;;;;22.41;62.83;99475.03;4499138;31;33773;-76
2023/07/29 05:00:04;;;;;;;5.22;2.70;;;;;;;22.92;61.11;99478.03;4500010;31;34044;-76
2023/07/29 05:02:32;;;;;;;4.85;2.60;;;;;;;22.60;62.04;99469.56;4495502;31;34167;-75
2023/07/29 05:05:00;;;;;;;6.45;2.60;;;;;;;22.67;62.06;99476.53;4498594;31;33378;-75
2023/07/29 05:07:27;;;;;;;5.10;2.42;;;;;;;22.61;62.73;99481.88;4485411;31;33493;-77
2023/07/29 05:09:55;;;;;;;5.10;2.78;;;;;;;22.81;62.44;99493.09;4493923;31;33911;-75
2023/07/29 05:12:23;;;;;;;4.40;2.40;;;;;;;23.07;62.01;99497.28;4487832;31;33506;-77
2023/07/29 05:14:50;;;;;;;5.68;2.70;;;;;;;23.34;60.38;99496.97;4496820;31;33669;-76
2023/07/29 05:17:18;;;;;;;4.87;2.70;;;;;;;23.48;60.13;99496.78;4485459;31;33829;-77
2023/07/29 05:19:45;;;;;;;5.03;2.57;;;;;;;23.27;61.06;99500.56;4491538;31;34066;-75
2023/07/29 05:22:13;;;;;;;5.93;2.70;;;;;;;23.27;61.32;99505.84;4491326;31;33544;-77
2023/07/29 05:24:41;;;;;;;6.70;2.70;;;;;;;23.48;60.84;99503.84;4490268;31;33278;-75
2023/07/29 05:27:08;;;;;;;5.62;2.55;;;;;;;23.43;60.68;99503.03;4496010;31;33744;-76
2023/07/29 05:29:36;;;;;;;6.25;2.37;;;;;;;23.50;60.93;99508.22;4493052;31;33725;-76
2023/07/29 05:32:04;;;;;;;4.30;2.50;;;;;;;23.74;59.39;99508.81;4487440;31;33627;-77
2023/07/29 05:34:31;;;;;;;6.62;2.60;;;;;;;23.62;60.24;99515.13;4489768;31;33347;-76
2023/07/29 05:36:59;;;;;;;5.60;2.62;;;;;;;23.73;60.55;99520.28;4489832;31;34525;-75
2023/07/29 05:39:26;;;;;;;4.85;2.70;;;;;;;23.83;59.88;99526.34;4488602;31;34392;-79
2023/07/29 05:41:54;;;;;;;4.80;2.50;;;;;;;24.16;59.13;99526.75;4491785;31;33785;-81
2023/07/29 05:44:21;;;;;;;4.97;2.47;;;;;;;24.16;58.58;99529.41;4490212;31;33115;-80
2023/07/29 05:46:49;;;;;;;4.93;2.80;;;;;;;24.10;59.03;99533.88;4484332;31;33703;-78
2023/07/29 05:49:17;;;;;;;6.37;2.90;;;;;;;24.17;59.14;99532.03;4485581;31;34376;-80
2023/07/29 05:51:44;;;;;;;5.45;2.90;;;;;;;24.19;59.10;99534.66;4487556;31;34341;-79
2023/07/29 05:54:12;;;;;;;5.43;2.80;;;;;;;24.24;59.02;99538.09;4483525;31;33567;-78
2023/07/29 05:56:40;;;;;;;5.50;2.97;;;;;;;24.32;58.89;99530.94;4474954;31;33373;-79
2023/07/29 05:59:08;;;;;;;4.87;2.67;;;;;;;24.33;58.75;99532.66;4485667;31;33723;-79
2023/07/29 06:01:36;;;;;;;7.50;2.65;;;;;;;24.51;58.62;99535.06;4490549;31;34750;-79
2023/07/29 06:04:04;;;;;;;5.05;2.60;;;;;;;24.59;58.62;99540.22;4492639;31;33506;-78
2023/07/29 06:06:31;;;;;;;6.37;2.50;;;;;;;24.61;58.52;99542.81;4491080;31;34378;-80
2023/07/29 06:08:59;;;;;;;7.00;2.90;;;;;;;24.80;58.18;99554.88;4492959;31;33913;-79
2023/07/29 06:11:27;;;;;;;6.25;2.90;;;;;;;24.88;58.29;99549.47;4494120;31;33613;-78
2023/07/29 06:13:55;;;;;;;6.17;2.40;;;;;;;24.75;59.03;99547.91;4485362;31;33277;-78
2023/07/29 06:16:22;;;;;;;5.65;2.72;;;;;;;24.82;58.27;99553.09;4475184;31;34577;-80
2023/07/29 06:18:52;;;;;;;4.75;2.60;;;;;;;25.11;57.11;99556.97;4492550;31;33880;-77
2023/07/29 06:21:20;;;;;;;6.43;2.73;;;;;;;25.04;56.79;99555.34;4487771;31;34268;-79
2023/07/29 06:23:47;;;;;;;4.70;2.70;;;;;;;25.30;56.06;99558.41;4493834;31;33885;-78
2023/07/29 06:26:15;;;;;;;5.32;2.90;;;;;;;25.63;55.00;99561.31;4482847;31;33654;-78
2023/07/29 06:28:42;;;;;;;5.37;2.92;;;;;;;25.60;56.06;99564.00;4490376;31;33433;-77
2023/07/29 06:31:10;;;;;;;5.87;2.83;;;;;;;25.87;55.01;99561.69;4484892;31;35554;-79
2023/07/29 06:33:38;;;;;;;5.30;3.00;;;;;;;25.89;55.04;99559.87;4494270;31;32949;-81
2023/07/29 06:36:05;;;;;;;5.68;3.00;;;;;;;25.86;55.35;99571.44;4483481;31;33791;-78
2023/07/29 06:38:33;;;;;;;5.87;2.80;;;;;;;26.01;55.09;99570.22;4484784;31;33900;-81
2023/07/29 06:41:01;;;;;;;6.17;2.93;;;;;;;26.29;54.01;99569.63;4494175;31;34313;-78
2023/07/29 06:43:28;;;;;;;5.03;2.80;;;;;;;26.05;54.62;99566.59;4487557;31;33513;-79
2023/07/29 06:45:56;;;;;;;4.95;2.80;;;;;;;26.47;52.85;99558.56;4477515;31;33592;-80
2023/07/29 06:48:23;;;;;;;5.65;2.67;;;;;;;26.44;53.73;99558.66;4492229;31;32386;-77
2023/07/29 06:50:51;;;;;;;4.60;2.83;;;;;;;26.73;51.94;99565.03;4491286;31;34025;-78
2023/07/29 06:53:19;;;;;;;4.78;2.87;;;;;;;26.58;52.20;99560.06;4494710;31;33372;-81
2023/07/29 06:55:47;;;;;;;5.22;3.10;;;;;;;26.61;52.36;99560.91;4485840;31;33679;-77
2023/07/29 06:58:14;;;;;;;5.82;3.12;;;;;;;26.55;53.23;99554.84;4484967;31;33397;-78
2023/07/29 07:00:42;;;;;;;5.70;3.05;;;;;;;27.02;51.61;99555.44;4491301;31;33250;-81
2023/07/29 07:03:09;;;;;;;5.12;2.97;;;;;;;26.83;52.50;99545.31;4493628;31;32940;-80
2023/07/29 07:05:37;;;;;;;5.87;2.90;;;;;;;26.66;52.77;99552.84;4496070;31;33673;-78
2023/07/29 07:08:05;;;;;;;5.40;2.90;;;;;;;26.99;52.08;99550.22;4497340;31;34509;-79
2023/07/29 07:10:33;;;;;;;5.45;2.87;;;;;;;27.21;51.67;99551.37;4496607;31;33559;-79
2023/07/29 07:13:01;;;;;;;5.55;3.00;;;;;;;27.07;51.39;99550.87;4496208;31;34182;-78
2023/07/29 07:15:28;;;;;;;4.70;2.70;;;;;;;27.29;51.71;99550.31;4479879;31;33770;-81
2023/07/29 07:17:56;;;;;;;5.62;3.03;;;;;;;27.13;52.45;99548.06;4482959;31;33620;-79
2023/07/29 07:20:23;;;;;;;6.15;2.97;;;;;;;27.41;51.32;99552.63;4492514;31;34220;-75
2023/07/29 07:22:51;;;;;;;6.43;2.80;;;;;;;27.53;51.12;99544.31;4488659;31;33379;-77
2023/07/29 07:25:19;;;;;;;6.05;2.78;;;;;;;27.84;50.27;99551.41;4494330;31;34588;-76
2023/07/29 07:27:46;;;;;;;5.00;2.70;;;;;;;28.09;49.59;99550.69;4491263;31;33702;-76
2023/07/29 07:30:14;;;;;;;6.72;2.90;;;;;;;28.11;49.08;99548.84;4485099;31;33892;-77
2023/07/29 07:32:42;;;;;;;4.75;2.60;;;;;;;28.01;49.42;99557.13;4495085;31;33448;-75
2023/07/29 07:35:09;;;;;;;5.62;2.83;;;;;;;27.92;48.99;99552.06;4495925;31;33871;-76
2023/07/29 07:37:38;;;;;;;4.75;2.67;;;;;;;27.74;50.39;99547.25;4484309;31;34461;-78
2023/07/29 07:40:06;;;;;;;4.62;2.30;;;;;;;27.88;49.94;99546.84;4496599;31;34572;-77
2023/07/29 07:42:35;;;;;;;4.35;2.37;;;;;;;28.00;49.06;99547.38;4492129;31;34209;-76
2023/07/29 07:45:03;;;;;;;4.50;2.45;;;;;;;28.26;48.38;99545.69;4489797;31;34261;-76
2023/07/29 07:47:30;;;;;;;5.37;2.35;;;;;;;28.53;47.48;99535.97;4496042;31;34253;-77
2023/07/29 07:49:58;;;;;;;4.35;2.30;;;;;;;28.69;47.29;99546.13;4497624;31;34626;-76
2023/07/29 07:52:25;;;;;;;6.45;2.45;;;;;;;29.22;45.60;99546.06;4495876;31;33098;-75
2023/07/29 07:54:54;;;;;;;4.10;2.05;;;;;;;29.07;46.05;99541.22;4497528;31;33847;-75
2023/07/29 07:57:22;;;;;;;5.25;2.50;;;;;;;29.45;45.02;99542.56;4484014;31;33940;-76
2023/07/29 07:59:50;;;;;;;3.20;1.90;;;;;;;29.48;45.07;99536.25;4498130;31;33740;-77
2023/07/29 08:02:18;;;;;;;3.85;2.22;;;;;;;29.95;42.96;99534.44;4496724;31;33262;-76
2023/07/29 08:04:46;;;;;;;4.50;2.10;;;;;;;29.98;42.69;99531.66;4487942;31;33454;-76
2023/07/29 08:07:14;;;;;;;4.37;2.35;;;;;;;30.08;42.95;99536.66;4495606;31;34516;-78
2023/07/29 08:09:41;;;;;;;4.22;2.50;;;;;;;30.37;42.62;99523.00;4497893;31;33915;-77
2023/07/29 08:12:09;;;;;;;3.20;1.80;;;;;;;30.37;42.55;99520.34;4485452;31;31845;-76
2023/07/29 08:14:36;;;;;;;4.28;2.20;;;;;;;30.57;41.43;99518.63;4498385;31;33944;-75
2023/07/29 08:17:04;;;;;;;3.55;2.00;;;;;;;30.89;41.42;99524.41;4490479;31;34534;-78
2023/07/29 08:19:32;;;;;;;4.97;2.17;;;;;;;30.80;40.90;99517.66;4491814;31;33569;-77
2023/07/29 08:21:59;;;;;;;5.93;2.35;;;;;;;31.50;40.31;99523.53;4493650;31;32906;-77
2023/07/29 08:24:27;;;;;;;4.50;2.30;;;;;;;31.46;40.48;99520.13;4496500;31;33415;-75
2023/07/29 08:26:54;;;;;;;4.53;2.03;;;;;;;31.63;39.83;99521.16;4470456;31;33821;-76
2023/07/29 08:29:22;;;;;;;5.75;2.25;;;;;;;31.80;39.37;99518.56;4485596;31;34051;-75
2023/07/29 08:31:51;;;;;;;3.45;1.90;;;;;;;32.10;38.79;99516.28;4485816;31;33183;-77
2023/07/29 08:34:19;;;;;;;5.43;1.80;;;;;;;32.25;38.29;99511.94;4485763;31;33474;-77
2023/07/29 08:36:47;;;;;;;3.60;1.80;;;;;;;32.49;36.66;99514.34;4485774;31;33771;-76
2023/07/29 08:39:15;;;;;;;3.92;1.80;;;;;;;32.51;36.98;99515.16;4487008;31;33767;-75
2023/07/29 08:41:49;;;;;;;4.37;1.60;;;;;;;32.74;36.51;99514.00;4486120;31;33961;-74
2023/07/29 08:44:24;;;;;;;3.75;1.60;;;;;;;32.69;36.22;99519.59;4486689;31;34261;-78
2023/07/29 08:46:53;;;;;;;3.42;1.50;;;;;;;33.18;35.39;99518.03;4481508;31;33095;-75
2023/07/29 08:49:23;;;;;;;4.37;1.70;;;;;;;33.07;35.17;99508.72;4486634;31;33535;-75
2023/07/29 08:51:53;;;;;;;2.65;1.40;;;;;;;33.15;35.19;99504.75;4483520;32;33007;-76
2023/07/29 08:54:21;;;;;;;4.22;1.50;;;;;;;33.16;34.98;99502.00;4483126;31;32233;-76
2023/07/29 08:56:50;;;;;;;4.22;1.70;;;;;;;33.51;33.08;99504.59;4476954;31;33700;-75
2023/07/29 08:59:17;;;;;;;3.70;1.50;;;;;;;33.39;34.05;99508.81;4493318;31;33583;-76
2023/07/29 09:01:45;;;;;;;4.10;1.70;;;;;;;33.45;34.14;99502.25;4481625;31;33542;-74
2023/07/29 09:04:13;;;;;;;3.30;1.60;;;;;;;33.73;33.02;99501.62;4484141;31;34486;-74
2023/07/29 09:06:42;;;;;;;3.70;1.60;;;;;;;33.74;33.46;99503.34;4497259;31;33704;-76
2023/07/29 09:09:10;;;;;;;3.22;1.50;;;;;;;34.25;32.90;99498.69;4476241;32;33595;-74
2023/07/29 09:11:37;;;;;;;4.87;1.60;;;;;;;34.21;32.58;99493.56;4482600;31;34060;-76
2023/07/29 09:14:05;;;;;;;3.08;1.65;;;;;;;34.15;32.92;99497.50;4482408;31;33887;-76
2023/07/29 09:16:34;;;;;;;3.70;1.67;;;;;;;34.35;32.42;99492.78;4492215;31;33563;-77
2023/07/29 09:19:03;;;;;;;3.45;1.75;;;;;;;34.47;32.73;99489.38;4480939;31;34848;-76
2023/07/29 09:21:31;;;;;;;2.60;1.50;;;;;;;34.66;32.17;99492.72;4489610;31;34091;-75
2023/07/29 09:24:03;;;;;;;5.40;2.10;;;;;;;34.53;31.97;99488.16;4490774;31;34403;-75
2023/07/29 09:26:31;;;;;;;3.58;1.75;;;;;;;34.51;31.58;99477.47;4490443;31;33388;-76
2023/07/29 09:28:59;;;;;;;4.35;1.70;;;;;;;34.71;31.47;99481.69;4488496;31;33676;-76
2023/07/29 09:31:28;;;;;;;3.40;1.58;;;;;;;34.55;31.67;99479.00;4486390;31;32305;-76
2023/07/29 09:33:58;;;;;;;3.17;1.50;;;;;;;34.46;31.81;99474.19;4488050;31;34512;-75
2023/07/29 09:36:26;;;;;;;2.53;1.30;;;;;;;34.63;31.01;99467.78;4492711;31;34341;-75
2023/07/29 09:38:54;;;;;;;5.07;1.70;;;;;;;34.88;30.47;99472.59;4487070;31;33568;-76
2023/07/29 09:41:24;;;;;;;4.43;1.50;;;;;;;34.74;30.97;99468.06;4491693;31;33056;-75
2023/07/29 09:44:02;;;;;;;3.17;1.50;;;;;;;35.29;30.54;99469.16;4489899;31;34613;-75
2023/07/29 09:46:37;;;;;;;9.05;2.40;;;;;;;35.11;30.59;99470.31;4478476;31;33092;-75
2023/07/29 09:49:07;;;;;;;5.82;1.65;;;;;;;35.05;30.93;99461.66;4480635;31;34216;-75
2023/07/29 09:51:39;;;;;;;4.60;1.70;;;;;;;35.04;30.33;99462.63;4485985;31;33340;-76
2023/07/29 09:54:07;;;;;;;4.57;1.70;;;;;;;34.93;30.56;99466.94;4492870;31;34025;-75
2023/07/29 09:56:39;;;;;;;27.02;4.57;;;;;;;35.23;29.95;99465.06;4488528;31;34290;-76
2023/07/29 09:59:07;;;;;;;5.00;1.77;;;;;;;35.25;29.65;99464.94;4478738;32;33192;-76
2023/07/29 10:01:35;;;;;;;3.42;1.45;;;;;;;35.18;30.33;99458.25;4485053;31;33604;-77
2023/07/29 10:04:05;;;;;;;3.65;1.50;;;;;;;35.25;30.15;99462.25;4461100;31;906609;-75
2023/07/29 10:06:34;;;;;;;6.28;1.70;;;;;;;35.21;30.27;99449.94;4485741;31;34582;-75
2023/07/29 10:09:04;;;;;;;6.68;2.00;;;;;;;35.49;29.61;99450.91;4497268;31;34723;-76
2023/07/29 10:11:32;;;;;;;4.78;1.58;;;;;;;35.37;30.11;99447.16;4492340;31;34315;-76
2023/07/29 10:14:00;;;;;;;2.92;1.60;;;;;;;35.26;30.19;99461.31;4474457;31;33732;-76
2023/07/29 10:16:40;;;;;;;2.80;1.27;;;;;;;35.45;29.55;99447.53;4480109;31;33259;-76
2023/07/29 10:19:09;;;;;;;2.55;1.33;;;;;;;35.79;28.88;99440.00;4485031;31;33450;-76
2023/07/29 10:21:38;;;;;;;3.72;1.40;;;;;;;35.76;28.62;99440.22;4495439;31;33024;-75
2023/07/29 10:24:09;;;;;;;2.75;1.40;;;;;;;35.73;29.23;99441.25;4477648;31;33186;-76
2023/07/29 10:26:38;;;;;;;2.78;1.40;;;;;;;35.80;28.92;99444.44;4484904;31;33640;-77
2023/07/29 10:29:08;;;;;;;2.80;1.20;;;;;;;36.02;27.72;99443.84;4492455;31;33459;-75
2023/07/29 10:31:37;;;;;;;2.20;1.30;;;;;;;36.20;28.30;99444.47;4485323;31;32935;-76
2023/07/29 10:34:04;;;;;;;2.83;1.35;;;;;;;36.19;27.88;99443.63;4492573;31;33186;-76
2023/07/29 10:36:32;;;;;;;2.87;1.35;;;;;;;36.26;28.27;99435.13;4480166;31;33397;-75
2023/07/29 10:38:59;;;;;;;3.35;1.50;;;;;;;36.07;28.68;99439.03;4483759;31;33148;-75
2023/07/29 10:41:56;;;;;;;2.87;1.42;;;;;;;35.76;28.83;99445.59;4491146;31;33159;-77
2023/07/29 10:44:39;;;;;;;3.20;1.30;;;;;;;35.20;29.41;99443.72;4488076;31;33657;-76
2023/07/29 10:47:17;;;;;;;2.80;1.30;;;;;;;34.83;30.04;99439.72;4479693;31;32440;-77
2023/07/29 10:49:46;;;;;;;2.90;1.30;;;;;;;34.83;30.32;99440.59;4482692;31;32824;-76
2023/07/29 10:52:28;;;;;;;4.10;1.35;;;;;;;35.02;30.26;99434.94;4486572;31;31917;-75
2023/07/29 10:54:58;;;;;;;2.60;1.42;;;;;;;34.93;30.21;99430.13;4482873;31;32897;-75
2023/07/29 10:57:34;;;;;;;2.70;1.37;;;;;;;34.74;30.56;99441.16;4480915;31;33427;-76
2023/07/29 11:00:03;;;;;;;2.53;1.40;;;;;;;34.81;30.44;99436.28;4487272;31;34053;-76
2023/07/29 11:02:33;;;;;;;2.85;1.27;;;;;;;34.74;29.92;99426.84;4483895;31;31281;-76
2023/07/29 11:05:05;;;;;;;2.67;1.20;;;;;;;34.90;29.90;99435.69;4490982;31;33815;-76
2023/07/29 11:07:47;;;;;;;3.35;1.15;;;;;;;34.87;30.21;99435.88;4485672;31;33196;-75
2023/07/29 11:10:16;;;;;;;3.12;1.10;;;;;;;35.60;28.77;99430.41;4491349;31;32978;-75
2023/07/29 11:12:53;;;;;;;2.97;1.30;;;;;;;35.41;28.84;99444.19;4481254;31;32961;-76
2023/07/29 11:15:26;;;;;;;4.68;1.50;;;;;;;35.59;28.51;99438.56;4493897;31;33759;-77
2023/07/29 11:18:01;;;;;;;2.50;1.20;;;;;;;35.77;29.16;99432.00;4483127;31;33216;-76
2023/07/29 11:20:30;;;;;;;2.87;1.27;;;;;;;35.95;28.54;99439.84;4484778;31;33024;-76
2023/07/29 11:23:00;;;;;;;3.12;1.30;;;;;;;35.89;28.69;99445.63;4492339;31;33172;-77
2023/07/29 11:25:30;;;;;;;4.00;1.37;;;;;;;35.77;28.51;99434.69;4487390;31;33431;-76
2023/07/29 11:27:58;;;;;;;3.97;1.17;;;;;;;35.83;28.45;99434.31;4492438;31;34535;-76
2023/07/29 11:30:27;;;;;;;2.22;1.30;;;;;;;35.86;28.19;99424.28;4487217;31;33791;-75
2023/07/29 11:32:55;;;;;;;2.00;1.10;;;;;;;35.81;28.59;99428.16;4482314;31;33751;-76
2023/07/29 11:35:23;;;;;;;3.50;1.30;;;;;;;35.83;28.77;99423.53;4477106;32;33794;-75
2023/07/29 11:37:52;;;;;;;3.08;1.30;;;;;;;35.44;29.46;99430.50;4491266;31;33632;-76
2023/07/29 11:40:21;;;;;;;2.67;1.25;;;;;;;35.36;29.84;99430.13;4477497;32;33079;-75